UATG/GUW METAR and TAF weather

Enter ICAO airport designator
Station Type Date Time Source
UATG METAR 2019/05/26 01:30 UTC NOAA

UATG 260130Z 12005MPS CAVOK 20/11 Q1013 R14/CLRD70 NOSIG RMK QFE762/1016


Station Type Date Time Source
UATG Decoded METAR 2019/05/26 01:30 UTC NOAA

Station name not available
May 25, 2019 - 09:30 PM EDT / 2019.05.26 0130 UTC
Wind: from the ESE (120 degrees) at 11 MPH (10 KT):0
Visibility: greater than 7 mile(s):0
Temperature: 68 F (20 C)
Dew Point: 51 F (11 C)
Relative Humidity: 56%
Pressure (altimeter): 29.91 in. Hg (1013 hPa)
ob: UATG 260130Z 12005MPS CAVOK 20/11 Q1013 R14/CLRD70 NOSIG RMK QFE762/1016
cycle: 1

Station Type Date Time Source
UATG TAF 2019/05/25 18:18 UTC NOAA

TAF UATG 251700Z 2518/2618 VRB02MPS 3100 BR SCT011 BKN030CB TX27/2611Z TN15/2601Z
TEMPO 2602/2605 12007MPS
BECMG 2605/2607 16007G12MPS 9999 NSW

Example: see airport list